sensor_id;sensor_type;location;lat;lon;timestamp;P1;durP1;ratioP1;P2;durP2;ratioP2
70532;SDS011;58088;51.186;17.130;2023-04-19T00:00:52;17.70;;;9.30;;
70532;SDS011;58088;51.186;17.130;2023-04-19T00:03:18;17.20;;;9.20;;
70532;SDS011;58088;51.186;17.130;2023-04-19T00:05:44;19.80;;;10.90;;
70532;SDS011;58088;51.186;17.130;2023-04-19T00:08:11;17.30;;;9.40;;
70532;SDS011;58088;51.186;17.130;2023-04-19T00:10:37;16.20;;;8.50;;
70532;SDS011;58088;51.186;17.130;2023-04-19T00:13:04;20.30;;;9.00;;
70532;SDS011;58088;51.186;17.130;2023-04-19T00:15:30;17.60;;;9.20;;
70532;SDS011;58088;51.186;17.130;2023-04-19T00:17:56;15.40;;;8.40;;
70532;SDS011;58088;51.186;17.130;2023-04-19T00:20:22;17.20;;;9.10;;
70532;SDS011;58088;51.186;17.130;2023-04-19T00:22:48;17.90;;;8.00;;
70532;SDS011;58088;51.186;17.130;2023-04-19T00:25:14;15.50;;;8.40;;
70532;SDS011;58088;51.186;17.130;2023-04-19T00:27:41;17.60;;;7.10;;
70532;SDS011;58088;51.186;17.130;2023-04-19T00:30:07;16.40;;;8.70;;
70532;SDS011;58088;51.186;17.130;2023-04-19T00:32:33;14.70;;;7.90;;
70532;SDS011;58088;51.186;17.130;2023-04-19T00:35:00;20.00;;;9.30;;
70532;SDS011;58088;51.186;17.130;2023-04-19T00:37:26;16.20;;;8.90;;
70532;SDS011;58088;51.186;17.130;2023-04-19T00:39:52;16.20;;;8.00;;
70532;SDS011;58088;51.186;17.130;2023-04-19T00:42:18;14.40;;;6.80;;
70532;SDS011;58088;51.186;17.130;2023-04-19T00:44:45;14.70;;;7.70;;
70532;SDS011;58088;51.186;17.130;2023-04-19T00:47:13;14.80;;;7.90;;
70532;SDS011;58088;51.186;17.130;2023-04-19T00:49:39;14.70;;;7.30;;
70532;SDS011;58088;51.186;17.130;2023-04-19T00:52:06;15.60;;;8.40;;
70532;SDS011;58088;51.186;17.130;2023-04-19T00:54:36;16.20;;;7.90;;
70532;SDS011;58088;51.186;17.130;2023-04-19T00:57:03;13.60;;;7.80;;
70532;SDS011;58088;51.186;17.130;2023-04-19T00:59:29;14.80;;;6.70;;
70532;SDS011;58088;51.186;17.130;2023-04-19T01:01:56;11.70;;;6.30;;
70532;SDS011;58088;51.186;17.130;2023-04-19T01:04:22;14.10;;;7.70;;
70532;SDS011;58088;51.186;17.130;2023-04-19T01:06:49;15.50;;;8.30;;
70532;SDS011;58088;51.186;17.130;2023-04-19T01:09:16;14.60;;;7.90;;
70532;SDS011;58088;51.186;17.130;2023-04-19T01:11:43;13.50;;;7.70;;
70532;SDS011;58088;51.186;17.130;2023-04-19T01:14:09;14.40;;;8.10;;
70532;SDS011;58088;51.186;17.130;2023-04-19T01:16:35;14.60;;;7.70;;
70532;SDS011;58088;51.186;17.130;2023-04-19T01:19:02;16.50;;;8.10;;
70532;SDS011;58088;51.186;17.130;2023-04-19T01:21:28;14.70;;;7.70;;
70532;SDS011;58088;51.186;17.130;2023-04-19T01:23:55;13.90;;;7.30;;
70532;SDS011;58088;51.186;17.130;2023-04-19T01:26:21;15.20;;;7.50;;
70532;SDS011;58088;51.186;17.130;2023-04-19T01:28:47;15.70;;;8.30;;
70532;SDS011;58088;51.186;17.130;2023-04-19T01:31:15;15.30;;;8.00;;
70532;SDS011;58088;51.186;17.130;2023-04-19T01:33:41;14.70;;;7.80;;
70532;SDS011;58088;51.186;17.130;2023-04-19T01:36:08;15.70;;;8.40;;
70532;SDS011;58088;51.186;17.130;2023-04-19T01:38:34;14.80;;;7.20;;
70532;SDS011;58088;51.186;17.130;2023-04-19T01:41:01;14.60;;;7.30;;
70532;SDS011;58088;51.186;17.130;2023-04-19T01:43:27;16.80;;;8.00;;
70532;SDS011;58088;51.186;17.130;2023-04-19T01:45:53;12.80;;;7.00;;
70532;SDS011;58088;51.186;17.130;2023-04-19T01:48:19;14.30;;;7.60;;
70532;SDS011;58088;51.186;17.130;2023-04-19T01:50:45;12.40;;;6.50;;
70532;SDS011;58088;51.186;17.130;2023-04-19T01:53:11;12.50;;;5.90;;
70532;SDS011;58088;51.186;17.130;2023-04-19T01:55:38;11.80;;;4.90;;
70532;SDS011;58088;51.186;17.130;2023-04-19T01:58:04;11.60;;;5.80;;
70532;SDS011;58088;51.186;17.130;2023-04-19T02:00:30;14.30;;;6.10;;
70532;SDS011;58088;51.186;17.130;2023-04-19T02:03:15;11.40;;;5.80;;
70532;SDS011;58088;51.186;17.130;2023-04-19T02:05:41;11.40;;;5.50;;
70532;SDS011;58088;51.186;17.130;2023-04-19T02:08:07;12.10;;;5.30;;
70532;SDS011;58088;51.186;17.130;2023-04-19T02:10:33;13.40;;;6.10;;
70532;SDS011;58088;51.186;17.130;2023-04-19T02:13:00;12.00;;;5.50;;
70532;SDS011;58088;51.186;17.130;2023-04-19T02:15:27;10.90;;;5.40;;
70532;SDS011;58088;51.186;17.130;2023-04-19T02:17:53;10.00;;;5.20;;
70532;SDS011;58088;51.186;17.130;2023-04-19T02:20:19;12.00;;;5.40;;
70532;SDS011;58088;51.186;17.130;2023-04-19T02:22:47;7.90;;;3.70;;
70532;SDS011;58088;51.186;17.130;2023-04-19T02:25:14;9.70;;;4.90;;
70532;SDS011;58088;51.186;17.130;2023-04-19T02:27:41;9.10;;;4.20;;
70532;SDS011;58088;51.186;17.130;2023-04-19T02:30:08;9.80;;;3.70;;
70532;SDS011;58088;51.186;17.130;2023-04-19T02:32:34;10.10;;;4.10;;
70532;SDS011;58088;51.186;17.130;2023-04-19T02:35:00;10.30;;;4.50;;
70532;SDS011;58088;51.186;17.130;2023-04-19T02:37:28;8.00;;;4.00;;
70532;SDS011;58088;51.186;17.130;2023-04-19T02:39:56;7.80;;;2.90;;
70532;SDS011;58088;51.186;17.130;2023-04-19T02:42:22;7.90;;;3.50;;
70532;SDS011;58088;51.186;17.130;2023-04-19T02:44:48;9.00;;;3.80;;
70532;SDS011;58088;51.186;17.130;2023-04-19T02:47:14;8.60;;;3.80;;
70532;SDS011;58088;51.186;17.130;2023-04-19T02:49:40;7.00;;;3.00;;
70532;SDS011;58088;51.186;17.130;2023-04-19T02:52:07;9.10;;;4.10;;
70532;SDS011;58088;51.186;17.130;2023-04-19T02:54:36;8.90;;;3.70;;
70532;SDS011;58088;51.186;17.130;2023-04-19T02:57:02;10.40;;;4.00;;
70532;SDS011;58088;51.186;17.130;2023-04-19T02:59:28;9.50;;;3.80;;
70532;SDS011;58088;51.186;17.130;2023-04-19T03:01:56;9.30;;;4.00;;
70532;SDS011;58088;51.186;17.130;2023-04-19T03:04:23;7.10;;;3.00;;
70532;SDS011;58088;51.186;17.130;2023-04-19T03:06:51;9.20;;;3.80;;
70532;SDS011;58088;51.186;17.130;2023-04-19T03:09:17;11.90;;;4.60;;
70532;SDS011;58088;51.186;17.130;2023-04-19T03:11:43;8.70;;;3.70;;
70532;SDS011;58088;51.186;17.130;2023-04-19T03:14:10;9.60;;;4.00;;
70532;SDS011;58088;51.186;17.130;2023-04-19T03:16:37;9.30;;;3.70;;
70532;SDS011;58088;51.186;17.130;2023-04-19T03:19:03;8.40;;;4.00;;
70532;SDS011;58088;51.186;17.130;2023-04-19T03:21:33;6.20;;;2.60;;
70532;SDS011;58088;51.186;17.130;2023-04-19T03:24:00;10.20;;;3.60;;
70532;SDS011;58088;51.186;17.130;2023-04-19T03:26:26;6.90;;;3.10;;
70532;SDS011;58088;51.186;17.130;2023-04-19T03:28:55;5.90;;;2.60;;
70532;SDS011;58088;51.186;17.130;2023-04-19T03:31:26;7.10;;;3.00;;
70532;SDS011;58088;51.186;17.130;2023-04-19T03:33:53;8.20;;;3.30;;
70532;SDS011;58088;51.186;17.130;2023-04-19T03:36:23;8.30;;;3.60;;
70532;SDS011;58088;51.186;17.130;2023-04-19T03:38:50;10.40;;;3.50;;
70532;SDS011;58088;51.186;17.130;2023-04-19T03:41:19;6.50;;;2.90;;
70532;SDS011;58088;51.186;17.130;2023-04-19T03:43:47;7.20;;;2.90;;
70532;SDS011;58088;51.186;17.130;2023-04-19T03:46:13;7.60;;;3.30;;
70532;SDS011;58088;51.186;17.130;2023-04-19T03:48:39;10.80;;;3.60;;
70532;SDS011;58088;51.186;17.130;2023-04-19T03:51:06;7.60;;;3.20;;
70532;SDS011;58088;51.186;17.130;2023-04-19T03:53:35;7.90;;;3.40;;
70532;SDS011;58088;51.186;17.130;2023-04-19T03:56:01;8.00;;;3.10;;
70532;SDS011;58088;51.186;17.130;2023-04-19T03:58:29;8.10;;;3.30;;
70532;SDS011;58088;51.186;17.130;2023-04-19T04:01:02;8.20;;;2.70;;
70532;SDS011;58088;51.186;17.130;2023-04-19T04:03:29;6.60;;;3.00;;
70532;SDS011;58088;51.186;17.130;2023-04-19T04:05:55;7.60;;;3.40;;
70532;SDS011;58088;51.186;17.130;2023-04-19T04:08:21;7.70;;;2.80;;
70532;SDS011;58088;51.186;17.130;2023-04-19T04:10:47;8.50;;;3.20;;
70532;SDS011;58088;51.186;17.130;2023-04-19T04:13:13;10.80;;;3.50;;
70532;SDS011;58088;51.186;17.130;2023-04-19T04:15:57;7.00;;;2.90;;
70532;SDS011;58088;51.186;17.130;2023-04-19T04:18:24;9.60;;;3.70;;
70532;SDS011;58088;51.186;17.130;2023-04-19T04:20:52;8.80;;;3.00;;
70532;SDS011;58088;51.186;17.130;2023-04-19T04:23:18;8.10;;;3.20;;
70532;SDS011;58088;51.186;17.130;2023-04-19T04:25:55;7.90;;;3.20;;
70532;SDS011;58088;51.186;17.130;2023-04-19T04:28:40;7.80;;;3.30;;
70532;SDS011;58088;51.186;17.130;2023-04-19T04:31:07;8.30;;;3.50;;
70532;SDS011;58088;51.186;17.130;2023-04-19T04:33:34;7.40;;;3.70;;
70532;SDS011;58088;51.186;17.130;2023-04-19T04:36:01;8.30;;;3.40;;
70532;SDS011;58088;51.186;17.130;2023-04-19T04:38:30;5.80;;;2.30;;
70532;SDS011;58088;51.186;17.130;2023-04-19T04:40:56;7.70;;;2.70;;
70532;SDS011;58088;51.186;17.130;2023-04-19T04:43:25;9.00;;;3.60;;
70532;SDS011;58088;51.186;17.130;2023-04-19T04:45:54;8.40;;;3.80;;
70532;SDS011;58088;51.186;17.130;2023-04-19T04:48:22;8.40;;;2.50;;
70532;SDS011;58088;51.186;17.130;2023-04-19T04:50:49;6.90;;;3.10;;
70532;SDS011;58088;51.186;17.130;2023-04-19T04:53:15;9.70;;;3.80;;
70532;SDS011;58088;51.186;17.130;2023-04-19T04:55:43;8.20;;;3.20;;
70532;SDS011;58088;51.186;17.130;2023-04-19T04:58:11;7.20;;;2.50;;
70532;SDS011;58088;51.186;17.130;2023-04-19T05:00:48;7.70;;;3.30;;
70532;SDS011;58088;51.186;17.130;2023-04-19T05:03:14;10.50;;;3.70;;
70532;SDS011;58088;51.186;17.130;2023-04-19T05:05:46;7.60;;;3.00;;
70532;SDS011;58088;51.186;17.130;2023-04-19T05:08:12;9.00;;;3.10;;
70532;SDS011;58088;51.186;17.130;2023-04-19T05:10:38;7.10;;;2.90;;
70532;SDS011;58088;51.186;17.130;2023-04-19T05:13:04;8.20;;;3.10;;
70532;SDS011;58088;51.186;17.130;2023-04-19T05:15:30;8.90;;;2.70;;
70532;SDS011;58088;51.186;17.130;2023-04-19T05:17:57;10.30;;;3.20;;
70532;SDS011;58088;51.186;17.130;2023-04-19T05:20:24;8.20;;;3.40;;
70532;SDS011;58088;51.186;17.130;2023-04-19T05:22:59;9.30;;;3.40;;
70532;SDS011;58088;51.186;17.130;2023-04-19T05:25:29;9.00;;;2.90;;
70532;SDS011;58088;51.186;17.130;2023-04-19T05:27:55;10.10;;;4.20;;
70532;SDS011;58088;51.186;17.130;2023-04-19T05:30:22;9.70;;;3.70;;
70532;SDS011;58088;51.186;17.130;2023-04-19T05:32:49;7.30;;;2.80;;
70532;SDS011;58088;51.186;17.130;2023-04-19T05:35:17;7.60;;;3.10;;
70532;SDS011;58088;51.186;17.130;2023-04-19T05:37:45;10.10;;;3.40;;
70532;SDS011;58088;51.186;17.130;2023-04-19T05:40:11;9.10;;;3.80;;
70532;SDS011;58088;51.186;17.130;2023-04-19T05:42:38;8.10;;;2.40;;
70532;SDS011;58088;51.186;17.130;2023-04-19T05:45:05;7.10;;;3.10;;
70532;SDS011;58088;51.186;17.130;2023-04-19T05:47:32;9.00;;;3.60;;
70532;SDS011;58088;51.186;17.130;2023-04-19T05:50:36;7.40;;;3.30;;
70532;SDS011;58088;51.186;17.130;2023-04-19T05:53:24;7.70;;;3.40;;
70532;SDS011;58088;51.186;17.130;2023-04-19T05:55:50;12.00;;;5.20;;
70532;SDS011;58088;51.186;17.130;2023-04-19T05:58:17;8.90;;;3.60;;
70532;SDS011;58088;51.186;17.130;2023-04-19T06:00:44;10.20;;;3.60;;
70532;SDS011;58088;51.186;17.130;2023-04-19T06:03:11;8.80;;;3.40;;
70532;SDS011;58088;51.186;17.130;2023-04-19T06:05:37;9.70;;;3.90;;
70532;SDS011;58088;51.186;17.130;2023-04-19T06:08:05;8.70;;;3.10;;
70532;SDS011;58088;51.186;17.130;2023-04-19T06:10:31;10.20;;;3.50;;
70532;SDS011;58088;51.186;17.130;2023-04-19T06:12:58;11.50;;;3.90;;
70532;SDS011;58088;51.186;17.130;2023-04-19T06:15:24;7.40;;;3.20;;
70532;SDS011;58088;51.186;17.130;2023-04-19T06:17:51;8.20;;;2.70;;
70532;SDS011;58088;51.186;17.130;2023-04-19T06:20:17;7.20;;;3.00;;
70532;SDS011;58088;51.186;17.130;2023-04-19T06:22:44;7.60;;;2.90;;
70532;SDS011;58088;51.186;17.130;2023-04-19T06:25:10;8.80;;;3.00;;
70532;SDS011;58088;51.186;17.130;2023-04-19T06:27:37;9.50;;;3.30;;
70532;SDS011;58088;51.186;17.130;2023-04-19T06:30:03;8.60;;;3.90;;
70532;SDS011;58088;51.186;17.130;2023-04-19T06:32:30;6.90;;;3.30;;
70532;SDS011;58088;51.186;17.130;2023-04-19T06:34:56;7.30;;;3.40;;
70532;SDS011;58088;51.186;17.130;2023-04-19T06:37:22;7.70;;;2.70;;
70532;SDS011;58088;51.186;17.130;2023-04-19T06:39:48;8.20;;;3.60;;
70532;SDS011;58088;51.186;17.130;2023-04-19T06:42:15;11.00;;;4.20;;
70532;SDS011;58088;51.186;17.130;2023-04-19T06:44:44;8.60;;;3.50;;
70532;SDS011;58088;51.186;17.130;2023-04-19T06:47:10;9.10;;;3.90;;
70532;SDS011;58088;51.186;17.130;2023-04-19T06:49:37;9.40;;;4.00;;
70532;SDS011;58088;51.186;17.130;2023-04-19T06:52:03;7.90;;;3.40;;
70532;SDS011;58088;51.186;17.130;2023-04-19T06:54:29;10.90;;;3.70;;
70532;SDS011;58088;51.186;17.130;2023-04-19T06:56:56;10.50;;;3.80;;
70532;SDS011;58088;51.186;17.130;2023-04-19T06:59:22;9.30;;;3.80;;
70532;SDS011;58088;51.186;17.130;2023-04-19T07:01:49;7.70;;;2.70;;
70532;SDS011;58088;51.186;17.130;2023-04-19T07:04:16;9.40;;;3.80;;
70532;SDS011;58088;51.186;17.130;2023-04-19T07:06:43;9.40;;;4.10;;
70532;SDS011;58088;51.186;17.130;2023-04-19T07:09:13;11.70;;;3.90;;
70532;SDS011;58088;51.186;17.130;2023-04-19T07:11:39;12.10;;;5.10;;
70532;SDS011;58088;51.186;17.130;2023-04-19T07:14:05;10.50;;;4.80;;
70532;SDS011;58088;51.186;17.130;2023-04-19T07:16:31;7.90;;;2.70;;
70532;SDS011;58088;51.186;17.130;2023-04-19T07:18:58;12.50;;;3.50;;
70532;SDS011;58088;51.186;17.130;2023-04-19T07:21:24;11.20;;;4.50;;
70532;SDS011;58088;51.186;17.130;2023-04-19T07:23:54;25.50;;;7.90;;
70532;SDS011;58088;51.186;17.130;2023-04-19T07:26:21;13.80;;;4.00;;
70532;SDS011;58088;51.186;17.130;2023-04-19T07:28:47;10.60;;;4.00;;
70532;SDS011;58088;51.186;17.130;2023-04-19T07:31:15;14.90;;;5.50;;
70532;SDS011;58088;51.186;17.130;2023-04-19T07:33:44;12.20;;;4.40;;
70532;SDS011;58088;51.186;17.130;2023-04-19T07:36:10;12.20;;;5.50;;
70532;SDS011;58088;51.186;17.130;2023-04-19T07:38:37;12.50;;;5.40;;
70532;SDS011;58088;51.186;17.130;2023-04-19T07:41:03;12.10;;;5.00;;
70532;SDS011;58088;51.186;17.130;2023-04-19T07:43:30;11.40;;;4.90;;
70532;SDS011;58088;51.186;17.130;2023-04-19T07:45:56;9.40;;;4.10;;
70532;SDS011;58088;51.186;17.130;2023-04-19T07:48:23;9.60;;;3.10;;
70532;SDS011;58088;51.186;17.130;2023-04-19T07:50:49;10.00;;;3.50;;
70532;SDS011;58088;51.186;17.130;2023-04-19T07:53:15;9.20;;;4.30;;
70532;SDS011;58088;51.186;17.130;2023-04-19T07:55:43;9.20;;;4.60;;
70532;SDS011;58088;51.186;17.130;2023-04-19T07:58:10;10.30;;;5.10;;
70532;SDS011;58088;51.186;17.130;2023-04-19T08:00:36;9.10;;;5.00;;
70532;SDS011;58088;51.186;17.130;2023-04-19T08:03:02;10.50;;;4.40;;
70532;SDS011;58088;51.186;17.130;2023-04-19T08:05:29;11.70;;;5.40;;
70532;SDS011;58088;51.186;17.130;2023-04-19T08:07:56;12.90;;;5.50;;
70532;SDS011;58088;51.186;17.130;2023-04-19T08:10:22;8.00;;;4.00;;
70532;SDS011;58088;51.186;17.130;2023-04-19T08:12:49;12.10;;;5.50;;
70532;SDS011;58088;51.186;17.130;2023-04-19T08:15:15;12.00;;;5.60;;
70532;SDS011;58088;51.186;17.130;2023-04-19T08:17:42;12.10;;;5.20;;
70532;SDS011;58088;51.186;17.130;2023-04-19T08:20:09;12.00;;;5.80;;
70532;SDS011;58088;51.186;17.130;2023-04-19T08:22:37;12.40;;;7.00;;
70532;SDS011;58088;51.186;17.130;2023-04-19T08:25:05;13.60;;;4.90;;
70532;SDS011;58088;51.186;17.130;2023-04-19T08:27:34;11.20;;;4.90;;
70532;SDS011;58088;51.186;17.130;2023-04-19T08:30:01;10.00;;;4.90;;
70532;SDS011;58088;51.186;17.130;2023-04-19T08:32:28;10.20;;;4.70;;
70532;SDS011;58088;51.186;17.130;2023-04-19T08:34:54;12.20;;;5.20;;
70532;SDS011;58088;51.186;17.130;2023-04-19T08:37:22;10.60;;;5.10;;
70532;SDS011;58088;51.186;17.130;2023-04-19T08:39:50;9.60;;;4.60;;
70532;SDS011;58088;51.186;17.130;2023-04-19T08:42:16;11.30;;;4.60;;
70532;SDS011;58088;51.186;17.130;2023-04-19T08:44:44;10.70;;;4.40;;
70532;SDS011;58088;51.186;17.130;2023-04-19T08:47:12;7.80;;;3.60;;
70532;SDS011;58088;51.186;17.130;2023-04-19T08:49:41;10.40;;;4.90;;
70532;SDS011;58088;51.186;17.130;2023-04-19T08:52:12;10.50;;;4.70;;
70532;SDS011;58088;51.186;17.130;2023-04-19T08:54:41;11.50;;;4.50;;
70532;SDS011;58088;51.186;17.130;2023-04-19T08:57:09;10.20;;;5.00;;
70532;SDS011;58088;51.186;17.130;2023-04-19T08:59:38;10.30;;;4.70;;
70532;SDS011;58088;51.186;17.130;2023-04-19T09:02:08;7.90;;;4.10;;
70532;SDS011;58088;51.186;17.130;2023-04-19T09:04:36;10.00;;;4.20;;
70532;SDS011;58088;51.186;17.130;2023-04-19T09:07:05;11.20;;;4.80;;
70532;SDS011;58088;51.186;17.130;2023-04-19T09:09:33;16.90;;;4.80;;
70532;SDS011;58088;51.186;17.130;2023-04-19T09:12:03;12.50;;;4.80;;
70532;SDS011;58088;51.186;17.130;2023-04-19T09:14:44;9.80;;;4.80;;
70532;SDS011;58088;51.186;17.130;2023-04-19T09:17:15;10.80;;;5.00;;
70532;SDS011;58088;51.186;17.130;2023-04-19T09:19:47;9.40;;;4.40;;
70532;SDS011;58088;51.186;17.130;2023-04-19T09:22:16;12.30;;;5.40;;
70532;SDS011;58088;51.186;17.130;2023-04-19T09:24:44;12.20;;;5.70;;
70532;SDS011;58088;51.186;17.130;2023-04-19T09:27:21;12.50;;;5.60;;
70532;SDS011;58088;51.186;17.130;2023-04-19T09:29:59;11.70;;;5.60;;
70532;SDS011;58088;51.186;17.130;2023-04-19T09:32:27;11.40;;;5.40;;
70532;SDS011;58088;51.186;17.130;2023-04-19T09:35:09;11.30;;;5.10;;
70532;SDS011;58088;51.186;17.130;2023-04-19T09:37:35;12.10;;;5.90;;
70532;SDS011;58088;51.186;17.130;2023-04-19T09:40:22;10.70;;;5.20;;
70532;SDS011;58088;51.186;17.130;2023-04-19T09:42:53;11.10;;;5.70;;
70532;SDS011;58088;51.186;17.130;2023-04-19T09:45:19;10.90;;;4.70;;
70532;SDS011;58088;51.186;17.130;2023-04-19T09:47:59;12.60;;;6.70;;
70532;SDS011;58088;51.186;17.130;2023-04-19T09:50:27;11.20;;;5.10;;
70532;SDS011;58088;51.186;17.130;2023-04-19T09:52:54;11.50;;;6.10;;
70532;SDS011;58088;51.186;17.130;2023-04-19T09:55:21;9.80;;;5.10;;
70532;SDS011;58088;51.186;17.130;2023-04-19T09:57:48;13.10;;;7.10;;
70532;SDS011;58088;51.186;17.130;2023-04-19T10:00:15;12.70;;;5.60;;
70532;SDS011;58088;51.186;17.130;2023-04-19T10:02:42;9.00;;;4.10;;
70532;SDS011;58088;51.186;17.130;2023-04-19T10:05:10;9.30;;;5.10;;
70532;SDS011;58088;51.186;17.130;2023-04-19T10:07:36;14.20;;;7.00;;
70532;SDS011;58088;51.186;17.130;2023-04-19T10:10:05;12.30;;;5.80;;
70532;SDS011;58088;51.186;17.130;2023-04-19T10:12:34;14.40;;;6.10;;
70532;SDS011;58088;51.186;17.130;2023-04-19T10:15:01;13.20;;;5.90;;
70532;SDS011;58088;51.186;17.130;2023-04-19T10:17:28;12.10;;;6.10;;
70532;SDS011;58088;51.186;17.130;2023-04-19T10:20:00;11.60;;;5.20;;
70532;SDS011;58088;51.186;17.130;2023-04-19T10:22:33;13.70;;;5.50;;
70532;SDS011;58088;51.186;17.130;2023-04-19T10:25:12;10.50;;;4.20;;
70532;SDS011;58088;51.186;17.130;2023-04-19T10:27:42;10.80;;;5.30;;
70532;SDS011;58088;51.186;17.130;2023-04-19T10:30:18;11.60;;;5.60;;
70532;SDS011;58088;51.186;17.130;2023-04-19T10:32:58;13.40;;;6.30;;
70532;SDS011;58088;51.186;17.130;2023-04-19T10:35:33;10.50;;;4.70;;
70532;SDS011;58088;51.186;17.130;2023-04-19T10:38:13;11.30;;;4.90;;
70532;SDS011;58088;51.186;17.130;2023-04-19T10:43:17;10.40;;;4.70;;
70532;SDS011;58088;51.186;17.130;2023-04-19T10:45:44;10.20;;;5.60;;
70532;SDS011;58088;51.186;17.130;2023-04-19T10:51:00;13.10;;;6.80;;
70532;SDS011;58088;51.186;17.130;2023-04-19T11:04:03;14.60;;;7.70;;
70532;SDS011;58088;51.186;17.130;2023-04-19T11:06:30;11.50;;;5.90;;
70532;SDS011;58088;51.186;17.130;2023-04-19T11:08:58;12.40;;;5.20;;
70532;SDS011;58088;51.186;17.130;2023-04-19T11:11:25;12.20;;;6.20;;
70532;SDS011;58088;51.186;17.130;2023-04-19T11:13:55;13.80;;;7.10;;
70532;SDS011;58088;51.186;17.130;2023-04-19T11:16:24;11.30;;;5.30;;
70532;SDS011;58088;51.186;17.130;2023-04-19T11:18:51;11.40;;;5.20;;
70532;SDS011;58088;51.186;17.130;2023-04-19T11:21:17;10.00;;;5.40;;
70532;SDS011;58088;51.186;17.130;2023-04-19T11:23:45;9.60;;;4.30;;
70532;SDS011;58088;51.186;17.130;2023-04-19T11:26:14;12.10;;;5.00;;
70532;SDS011;58088;51.186;17.130;2023-04-19T11:28:43;11.80;;;5.50;;
70532;SDS011;58088;51.186;17.130;2023-04-19T11:31:10;11.30;;;5.60;;
70532;SDS011;58088;51.186;17.130;2023-04-19T11:33:36;12.90;;;7.10;;
70532;SDS011;58088;51.186;17.130;2023-04-19T11:36:02;8.70;;;4.50;;
70532;SDS011;58088;51.186;17.130;2023-04-19T11:38:46;13.10;;;5.80;;
70532;SDS011;58088;51.186;17.130;2023-04-19T11:41:13;11.20;;;5.20;;
70532;SDS011;58088;51.186;17.130;2023-04-19T11:43:39;14.20;;;7.70;;
70532;SDS011;58088;51.186;17.130;2023-04-19T11:46:07;16.40;;;7.70;;
70532;SDS011;58088;51.186;17.130;2023-04-19T11:48:35;10.10;;;4.80;;
70532;SDS011;58088;51.186;17.130;2023-04-19T11:51:03;17.50;;;6.60;;
70532;SDS011;58088;51.186;17.130;2023-04-19T11:53:31;11.00;;;5.30;;
70532;SDS011;58088;51.186;17.130;2023-04-19T11:56:05;13.50;;;6.70;;
70532;SDS011;58088;51.186;17.130;2023-04-19T11:58:44;14.10;;;7.00;;
70532;SDS011;58088;51.186;17.130;2023-04-19T12:03:48;10.90;;;5.60;;
70532;SDS011;58088;51.186;17.130;2023-04-19T12:06:18;10.20;;;5.20;;
70532;SDS011;58088;51.186;17.130;2023-04-19T12:08:49;11.30;;;5.90;;
70532;SDS011;58088;51.186;17.130;2023-04-19T12:11:19;12.90;;;6.40;;
70532;SDS011;58088;51.186;17.130;2023-04-19T12:14:06;9.10;;;4.50;;
70532;SDS011;58088;51.186;17.130;2023-04-19T12:16:33;10.40;;;4.50;;
70532;SDS011;58088;51.186;17.130;2023-04-19T12:19:12;9.70;;;4.60;;
70532;SDS011;58088;51.186;17.130;2023-04-19T12:21:40;7.60;;;3.40;;
70532;SDS011;58088;51.186;17.130;2023-04-19T12:24:06;11.30;;;4.90;;
70532;SDS011;58088;51.186;17.130;2023-04-19T12:26:33;9.90;;;4.70;;
70532;SDS011;58088;51.186;17.130;2023-04-19T12:29:01;8.90;;;4.60;;
70532;SDS011;58088;51.186;17.130;2023-04-19T12:31:30;9.40;;;5.50;;
70532;SDS011;58088;51.186;17.130;2023-04-19T12:33:59;8.60;;;4.00;;
70532;SDS011;58088;51.186;17.130;2023-04-19T12:36:26;12.50;;;6.50;;
70532;SDS011;58088;51.186;17.130;2023-04-19T12:38:53;10.20;;;5.50;;
70532;SDS011;58088;51.186;17.130;2023-04-19T12:41:19;8.70;;;4.50;;
70532;SDS011;58088;51.186;17.130;2023-04-19T12:43:45;9.60;;;4.90;;
70532;SDS011;58088;51.186;17.130;2023-04-19T12:46:12;9.40;;;5.10;;
70532;SDS011;58088;51.186;17.130;2023-04-19T12:48:38;10.70;;;5.10;;
70532;SDS011;58088;51.186;17.130;2023-04-19T12:51:04;11.20;;;4.80;;
70532;SDS011;58088;51.186;17.130;2023-04-19T12:53:30;11.20;;;5.80;;
70532;SDS011;58088;51.186;17.130;2023-04-19T12:55:57;9.20;;;5.10;;
70532;SDS011;58088;51.186;17.130;2023-04-19T12:58:23;9.70;;;3.90;;
70532;SDS011;58088;51.186;17.130;2023-04-19T13:00:49;11.80;;;5.30;;
70532;SDS011;58088;51.186;17.130;2023-04-19T13:03:15;10.00;;;4.70;;
70532;SDS011;58088;51.186;17.130;2023-04-19T13:05:42;11.40;;;6.20;;
70532;SDS011;58088;51.186;17.130;2023-04-19T13:08:08;11.10;;;6.10;;
70532;SDS011;58088;51.186;17.130;2023-04-19T13:10:34;8.20;;;4.50;;
70532;SDS011;58088;51.186;17.130;2023-04-19T13:13:00;11.00;;;5.80;;
70532;SDS011;58088;51.186;17.130;2023-04-19T13:15:26;8.70;;;5.30;;
70532;SDS011;58088;51.186;17.130;2023-04-19T13:17:54;7.90;;;3.80;;
70532;SDS011;58088;51.186;17.130;2023-04-19T13:20:20;9.60;;;5.10;;
70532;SDS011;58088;51.186;17.130;2023-04-19T13:22:46;9.20;;;5.00;;
70532;SDS011;58088;51.186;17.130;2023-04-19T13:25:13;9.80;;;5.30;;
70532;SDS011;58088;51.186;17.130;2023-04-19T13:27:39;7.30;;;4.00;;
70532;SDS011;58088;51.186;17.130;2023-04-19T13:30:06;9.00;;;4.00;;
70532;SDS011;58088;51.186;17.130;2023-04-19T13:32:33;8.30;;;4.70;;
70532;SDS011;58088;51.186;17.130;2023-04-19T13:34:59;8.00;;;3.90;;
70532;SDS011;58088;51.186;17.130;2023-04-19T13:37:26;8.70;;;5.50;;
70532;SDS011;58088;51.186;17.130;2023-04-19T13:39:52;8.10;;;4.50;;
70532;SDS011;58088;51.186;17.130;2023-04-19T13:42:18;10.00;;;5.20;;
70532;SDS011;58088;51.186;17.130;2023-04-19T13:44:45;7.40;;;4.20;;
70532;SDS011;58088;51.186;17.130;2023-04-19T13:47:11;7.30;;;3.20;;
70532;SDS011;58088;51.186;17.130;2023-04-19T13:49:37;8.50;;;3.80;;
70532;SDS011;58088;51.186;17.130;2023-04-19T13:52:03;10.00;;;4.40;;
70532;SDS011;58088;51.186;17.130;2023-04-19T13:54:30;42.00;;;16.10;;
70532;SDS011;58088;51.186;17.130;2023-04-19T13:56:56;25.50;;;11.20;;
70532;SDS011;58088;51.186;17.130;2023-04-19T13:59:22;18.20;;;7.60;;
70532;SDS011;58088;51.186;17.130;2023-04-19T14:01:50;27.30;;;10.80;;
70532;SDS011;58088;51.186;17.130;2023-04-19T14:04:19;16.40;;;6.80;;
70532;SDS011;58088;51.186;17.130;2023-04-19T14:06:47;10.70;;;5.10;;
70532;SDS011;58088;51.186;17.130;2023-04-19T14:09:14;8.10;;;4.50;;
70532;SDS011;58088;51.186;17.130;2023-04-19T14:11:40;9.10;;;5.00;;
70532;SDS011;58088;51.186;17.130;2023-04-19T14:14:06;18.10;;;9.00;;
70532;SDS011;58088;51.186;17.130;2023-04-19T14:16:32;10.30;;;5.40;;
70532;SDS011;58088;51.186;17.130;2023-04-19T14:18:59;7.60;;;4.20;;
70532;SDS011;58088;51.186;17.130;2023-04-19T14:21:25;10.00;;;5.10;;
70532;SDS011;58088;51.186;17.130;2023-04-19T14:23:53;8.90;;;4.90;;
70532;SDS011;58088;51.186;17.130;2023-04-19T14:26:20;11.20;;;5.70;;
70532;SDS011;58088;51.186;17.130;2023-04-19T14:28:46;9.80;;;5.10;;
70532;SDS011;58088;51.186;17.130;2023-04-19T14:31:13;9.20;;;4.80;;
70532;SDS011;58088;51.186;17.130;2023-04-19T14:33:39;15.90;;;6.80;;
70532;SDS011;58088;51.186;17.130;2023-04-19T14:36:06;9.60;;;5.00;;
70532;SDS011;58088;51.186;17.130;2023-04-19T14:38:33;12.40;;;6.80;;
70532;SDS011;58088;51.186;17.130;2023-04-19T14:41:00;12.90;;;6.10;;
70532;SDS011;58088;51.186;17.130;2023-04-19T14:43:26;8.70;;;5.00;;
70532;SDS011;58088;51.186;17.130;2023-04-19T14:45:52;8.10;;;4.20;;
70532;SDS011;58088;51.186;17.130;2023-04-19T14:48:18;7.90;;;4.60;;